Burns Town, Louisiana
Current Conditions -  °F | °C
As of 1:53 PM on Wednesday 26 Nov 2014 (Local Time) from KAEX Reporting Station
Clear Clear  
Wind Chill: 68°   Ceiling: Unl
Heat Index: 68°   Visibility: 10mi
Dew Point: 39°   Wind: 18mph
Humidity: 35%   Direction: 230°SW
Pressure: 30.1"   Gusts: 30mph
Location:  31.4254°N, 92.7765°W
Report Text: KAEX 261953Z 23016G26KT 10SM CLR 20/04 A3010 RMK AO2 PK WND 23030/1935 SLP198 T02000039
Loading
Personal Weather Stations






























Interactive Weather Map New forecast layout! Learn more

10-Day Weather Forecast

Advertisements
Track Severe Weather on mobile